Time;durP1;ratioP1;P1;durP2;ratioP2;P2;SDS_P1;SDS_P2;PMS_P1;PMS_P2;Temp;Humidity;BMP_temperature;BMP_pressure;BME280_temperature;BME280_humidity;BME280_pressure;Samples;Min_cycle;Max_cycle;Signal;HPM_P1;HPM_P2
2024/03/07 00:00:35;;;;;;;14.18;7.20;;;5.50;99.90;;;;;;5085946;28;20056;-73
2024/03/07 00:03:01;;;;;;;12.13;7.18;;;5.60;99.90;;;;;;5084827;28;20123;-73
2024/03/07 00:05:27;;;;;;;13.18;6.30;;;5.50;99.90;;;;;;5085396;28;20123;-72
2024/03/07 00:07:54;;;;;;;10.63;5.88;;;5.50;99.90;;;;;;5088696;28;20088;-73
2024/03/07 00:10:21;;;;;;;19.13;7.25;;;5.50;99.90;;;;;;5087170;28;20040;-73
2024/03/07 00:12:48;;;;;;;9.68;6.18;;;5.40;99.90;;;;;;5085059;28;20040;-73
2024/03/07 00:15:14;;;;;;;13.98;7.47;;;5.50;99.90;;;;;;5087259;28;20043;-74
2024/03/07 00:17:41;;;;;;;9.45;5.72;;;5.50;99.90;;;;;;5088652;28;20111;-73
2024/03/07 00:20:14;;;;;;;18.13;7.10;;;5.50;99.90;;;;;;5087455;28;20428;-74
2024/03/07 00:22:43;;;;;;;13.20;7.20;;;5.40;99.90;;;;;;5085838;28;20048;-74
2024/03/07 00:25:10;;;;;;;10.80;5.65;;;5.40;99.90;;;;;;5083044;28;20117;-73
2024/03/07 00:27:36;;;;;;;11.38;6.97;;;5.40;99.90;;;;;;5087116;28;20046;-74
2024/03/07 00:30:04;;;;;;;11.55;5.90;;;5.30;99.90;;;;;;5086702;28;20052;-73
2024/03/07 00:32:35;;;;;;;13.25;5.43;;;5.30;99.90;;;;;;5088275;28;20064;-72
2024/03/07 00:35:03;;;;;;;11.77;5.55;;;5.30;99.90;;;;;;5087439;28;20036;-73
2024/03/07 00:37:30;;;;;;;6.25;4.65;;;5.30;99.90;;;;;;5072552;28;20047;-73
2024/03/07 00:39:56;;;;;;;15.95;5.80;;;5.20;99.90;;;;;;5086969;28;20055;-73
2024/03/07 00:42:22;;;;;;;11.10;5.80;;;5.20;99.90;;;;;;5084545;28;20380;-73
2024/03/07 00:44:49;;;;;;;12.98;5.88;;;5.10;99.90;;;;;;5071330;28;20128;-74
2024/03/07 00:47:17;;;;;;;9.80;5.82;;;5.10;99.90;;;;;;5105439;28;20046;-75
2024/03/07 00:49:45;;;;;;;10.10;5.55;;;5.10;99.90;;;;;;5077880;28;20036;-73
2024/03/07 00:52:11;;;;;;;7.93;5.78;;;5.10;99.90;;;;;;5088552;28;20495;-73
2024/03/07 00:54:36;;;;;;;12.10;6.22;;;5.10;99.90;;;;;;5068082;28;20070;-73
2024/03/07 00:57:02;;;;;;;9.13;6.00;;;5.00;99.90;;;;;;5088509;28;20058;-73
2024/03/07 00:59:28;;;;;;;8.07;4.50;;;5.00;99.90;;;;;;5085941;28;20131;-73
2024/03/07 01:01:54;;;;;;;13.15;5.25;;;5.00;99.90;;;;;;5071376;28;20050;-73
2024/03/07 01:04:19;;;;;;;10.77;5.20;;;4.90;99.90;;;;;;5086257;28;20033;-73
2024/03/07 01:06:45;;;;;;;7.65;5.20;;;4.90;99.90;;;;;;5088295;28;20552;-73
2024/03/07 01:09:14;;;;;;;8.15;5.25;;;4.90;99.90;;;;;;5086223;28;20048;-73
2024/03/07 01:11:47;;;;;;;8.77;4.68;;;4.90;99.90;;;;;;5098966;28;20055;-72
2024/03/07 01:14:13;;;;;;;8.43;4.97;;;4.80;99.90;;;;;;5087697;28;20067;-73
2024/03/07 01:16:39;;;;;;;8.38;4.95;;;4.80;99.90;;;;;;5086411;28;20047;-73
2024/03/07 01:19:08;;;;;;;9.73;5.10;;;4.70;99.90;;;;;;5087606;28;20039;-73
2024/03/07 01:21:34;;;;;;;6.00;4.05;;;4.70;99.90;;;;;;5083182;28;20072;-73
2024/03/07 01:24:01;;;;;;;9.05;4.53;;;4.70;99.90;;;;;;5087316;28;20564;-73
2024/03/07 01:26:28;;;;;;;6.93;4.63;;;4.70;99.90;;;;;;5070381;28;20510;-73
2024/03/07 01:28:58;;;;;;;10.82;5.32;;;4.60;99.90;;;;;;5086858;28;20036;-73
2024/03/07 01:31:24;;;;;;;8.63;4.55;;;4.60;99.90;;;;;;5086630;28;20102;-73
2024/03/07 01:33:50;;;;;;;7.53;4.65;;;4.60;99.90;;;;;;5088173;28;20078;-73
2024/03/07 01:36:16;;;;;;;7.65;4.50;;;4.50;99.90;;;;;;5087284;28;20046;-73
2024/03/07 01:38:42;;;;;;;7.50;4.82;;;4.50;99.90;;;;;;5099022;28;20036;-73
2024/03/07 01:41:08;;;;;;;8.90;4.55;;;4.40;99.90;;;;;;5085251;28;20067;-73
2024/03/07 01:43:34;;;;;;;10.60;4.65;;;4.40;99.90;;;;;;5087767;28;20063;-73
2024/03/07 01:46:00;;;;;;;7.47;4.32;;;4.30;99.90;;;;;;5082647;28;20047;-72
2024/03/07 01:48:31;;;;;;;7.50;4.78;;;4.30;99.90;;;;;;5087862;28;20170;-73
2024/03/07 01:51:00;;;;;;;7.88;4.43;;;4.30;99.90;;;;;;5085504;28;20511;-73
2024/03/07 01:53:28;;;;;;;10.30;5.57;;;4.20;99.90;;;;;;5088534;28;20032;-72
2024/03/07 01:55:54;;;;;;;7.32;5.03;;;4.20;99.90;;;;;;5085506;28;20058;-73
2024/03/07 01:58:21;;;;;;;10.50;5.07;;;4.20;99.90;;;;;;5086618;28;20036;-73
2024/03/07 02:00:47;;;;;;;6.90;3.53;;;4.10;99.90;;;;;;5086281;28;20502;-73
2024/03/07 02:03:13;;;;;;;4.85;3.70;;;4.10;99.90;;;;;;5082955;28;20488;-73
2024/03/07 02:05:40;;;;;;;8.25;4.15;;;4.20;99.90;;;;;;5070598;28;20032;-72
2024/03/07 02:08:06;;;;;;;8.57;4.57;;;4.10;99.90;;;;;;5083957;28;20484;-73
2024/03/07 02:10:32;;;;;;;6.05;4.35;;;4.10;99.90;;;;;;5084251;28;20043;-73
2024/03/07 02:12:57;;;;;;;5.70;3.85;;;4.10;99.90;;;;;;5086784;28;20044;-74
2024/03/07 02:15:23;;;;;;;7.15;3.45;;;4.10;99.90;;;;;;5086388;28;20064;-73
2024/03/07 02:17:49;;;;;;;5.00;3.88;;;4.10;99.90;;;;;;5065540;28;20033;-72
2024/03/07 02:20:15;;;;;;;5.20;3.53;;;4.10;99.90;;;;;;5083388;28;20488;-73
2024/03/07 02:22:41;;;;;;;6.18;4.20;;;4.00;99.90;;;;;;5086217;28;20052;-72
2024/03/07 02:25:09;;;;;;;5.38;4.18;;;4.00;99.90;;;;;;5063176;28;20036;-73
2024/03/07 02:27:36;;;;;;;7.15;4.25;;;4.00;99.90;;;;;;5089630;28;20040;-72
2024/03/07 02:30:05;;;;;;;4.85;3.28;;;3.90;99.90;;;;;;5083198;28;20093;-73
2024/03/07 02:32:32;;;;;;;5.65;3.38;;;4.00;99.90;;;;;;5088541;28;20126;-72
2024/03/07 02:34:58;;;;;;;7.43;5.03;;;3.90;99.90;;;;;;5107667;28;20055;-73
2024/03/07 02:37:24;;;;;;;7.97;4.88;;;3.90;99.90;;;;;;5088983;28;20517;-73
2024/03/07 02:39:49;;;;;;;8.07;4.60;;;3.90;99.90;;;;;;5104507;28;20131;-73
2024/03/07 02:42:15;;;;;;;12.18;5.13;;;3.80;99.90;;;;;;5090554;28;20040;-72
2024/03/07 02:44:41;;;;;;;5.03;3.50;;;3.80;99.90;;;;;;5089982;28;20032;-72
2024/03/07 02:47:06;;;;;;;6.25;3.33;;;3.80;99.90;;;;;;5087619;28;20074;-73
2024/03/07 02:49:32;;;;;;;9.98;4.95;;;3.70;99.90;;;;;;5070947;28;20165;-74
2024/03/07 02:51:58;;;;;;;6.57;3.97;;;3.60;99.90;;;;;;5087038;28;20121;-73
2024/03/07 02:54:24;;;;;;;10.38;4.72;;;3.70;99.90;;;;;;5087897;28;20060;-72
2024/03/07 02:56:50;;;;;;;5.65;3.45;;;3.60;99.90;;;;;;5107615;28;20044;-72
2024/03/07 02:59:16;;;;;;;11.50;5.30;;;3.60;99.90;;;;;;5087989;28;20039;-74
2024/03/07 03:01:42;;;;;;;5.75;3.97;;;3.60;99.90;;;;;;5103086;28;20048;-73
2024/03/07 03:04:09;;;;;;;5.97;4.03;;;3.60;99.90;;;;;;5086757;28;20040;-72
2024/03/07 03:06:35;;;;;;;6.40;3.22;;;3.60;99.90;;;;;;5089161;28;20043;-72
2024/03/07 03:09:00;;;;;;;7.72;4.60;;;3.60;99.90;;;;;;5085537;28;20040;-72
2024/03/07 03:11:27;;;;;;;13.10;5.07;;;3.50;99.90;;;;;;5087940;28;20036;-72
2024/03/07 03:13:53;;;;;;;8.80;4.30;;;3.50;99.90;;;;;;5087821;28;20051;-72
2024/03/07 03:16:18;;;;;;;7.35;4.65;;;3.40;99.90;;;;;;5105016;28;20078;-72
2024/03/07 03:18:44;;;;;;;9.75;5.13;;;3.40;99.90;;;;;;5085594;28;20076;-73
2024/03/07 03:21:10;;;;;;;7.10;4.40;;;3.40;99.90;;;;;;5087594;28;20054;-73
2024/03/07 03:23:36;;;;;;;4.97;3.53;;;3.40;99.90;;;;;;5089957;28;20085;-72
2024/03/07 03:26:01;;;;;;;7.38;4.55;;;3.40;99.90;;;;;;5085972;28;20030;-72
2024/03/07 03:28:27;;;;;;;7.30;4.38;;;3.30;99.90;;;;;;5090912;28;20089;-72
2024/03/07 03:30:53;;;;;;;5.78;3.30;;;3.40;99.90;;;;;;5083089;28;20044;-73
2024/03/07 03:33:20;;;;;;;6.97;3.80;;;3.30;99.90;;;;;;5087160;28;20044;-73
2024/03/07 03:35:46;;;;;;;6.10;3.70;;;3.30;99.90;;;;;;5083367;28;20053;-72
2024/03/07 03:38:12;;;;;;;6.80;4.13;;;3.20;99.90;;;;;;5081684;28;20082;-73
2024/03/07 03:40:38;;;;;;;5.40;3.67;;;3.20;99.90;;;;;;5084286;28;20048;-73
2024/03/07 03:43:04;;;;;;;9.93;4.40;;;3.10;99.90;;;;;;5088940;28;20089;-73
2024/03/07 03:45:32;;;;;;;5.57;3.22;;;3.10;99.90;;;;;;5086088;28;20154;-73
2024/03/07 03:47:57;;;;;;;8.32;4.65;;;3.10;99.90;;;;;;5104813;28;20040;-74
2024/03/07 03:50:23;;;;;;;5.38;3.88;;;3.10;99.90;;;;;;5087606;28;20391;-72
2024/03/07 03:52:49;;;;;;;4.35;2.63;;;3.10;99.90;;;;;;5088443;28;20044;-72
2024/03/07 03:55:15;;;;;;;6.40;3.53;;;3.00;99.90;;;;;;5085273;28;20059;-73
2024/03/07 03:57:42;;;;;;;4.60;3.15;;;3.00;99.90;;;;;;5087481;28;20048;-72
2024/03/07 04:00:12;;;;;;;8.23;4.28;;;3.00;99.90;;;;;;5086838;28;20541;-72
2024/03/07 04:02:43;;;;;;;5.13;2.88;;;3.00;99.90;;;;;;5086509;28;20044;-72
2024/03/07 04:05:13;;;;;;;5.47;3.88;;;2.90;99.90;;;;;;5087814;28;20039;-72
2024/03/07 04:07:39;;;;;;;4.53;3.35;;;2.90;99.90;;;;;;5083320;28;20032;-72
2024/03/07 04:10:09;;;;;;;6.07;3.55;;;2.90;99.90;;;;;;5087830;28;20145;-72
2024/03/07 04:12:37;;;;;;;6.70;4.30;;;2.90;99.90;;;;;;5101686;28;20055;-72
2024/03/07 04:15:04;;;;;;;7.60;4.75;;;2.80;99.90;;;;;;5089968;28;20543;-72
2024/03/07 04:17:31;;;;;;;6.32;4.32;;;2.80;99.90;;;;;;5100647;28;20132;-72
2024/03/07 04:19:58;;;;;;;6.88;4.15;;;2.70;99.90;;;;;;5089888;28;20066;-72
2024/03/07 04:22:24;;;;;;;6.55;3.22;;;2.70;99.90;;;;;;5085493;28;20109;-72
2024/03/07 04:24:53;;;;;;;5.88;3.47;;;2.70;99.90;;;;;;5088454;28;20043;-72
2024/03/07 04:27:20;;;;;;;4.95;3.45;;;2.70;99.90;;;;;;5085888;28;20036;-72
2024/03/07 04:29:49;;;;;;;5.63;3.83;;;2.60;99.90;;;;;;5087227;28;20044;-72
2024/03/07 04:32:16;;;;;;;6.93;3.67;;;2.60;99.90;;;;;;5086647;28;20131;-72
2024/03/07 04:34:43;;;;;;;5.97;4.28;;;2.50;99.90;;;;;;5087316;28;20123;-72
2024/03/07 04:37:09;;;;;;;4.38;3.75;;;2.50;99.90;;;;;;5086590;28;20036;-72
2024/03/07 04:39:35;;;;;;;5.22;3.78;;;2.50;99.90;;;;;;5088659;28;20109;-72
2024/03/07 04:42:02;;;;;;;5.35;4.03;;;2.40;99.90;;;;;;5085788;28;20037;-72
2024/03/07 04:44:29;;;;;;;6.80;3.85;;;2.40;99.90;;;;;;5093250;28;20111;-72
2024/03/07 04:46:56;;;;;;;3.15;2.40;;;2.30;99.90;;;;;;5071031;28;20123;-72
2024/03/07 04:49:27;;;;;;;7.57;4.22;;;2.40;99.90;;;;;;5070200;28;20063;-72
2024/03/07 04:51:54;;;;;;;4.97;2.95;;;2.30;99.90;;;;;;5087598;28;20121;-72
2024/03/07 04:54:21;;;;;;;6.22;3.72;;;2.40;99.90;;;;;;5087540;28;20052;-72
2024/03/07 04:56:48;;;;;;;4.43;3.42;;;2.30;99.90;;;;;;5069990;28;20055;-72
2024/03/07 04:59:15;;;;;;;5.68;3.95;;;2.30;99.90;;;;;;5083642;28;20043;-73
2024/03/07 05:01:40;;;;;;;7.65;4.55;;;2.20;99.90;;;;;;5088484;28;20051;-73
2024/03/07 05:04:07;;;;;;;4.75;3.03;;;2.20;99.90;;;;;;5102042;28;20035;-73
2024/03/07 05:06:36;;;;;;;6.85;3.80;;;2.20;99.90;;;;;;5090378;28;20038;-72
2024/03/07 05:09:03;;;;;;;6.22;3.15;;;2.30;99.90;;;;;;5086504;28;20036;-72
2024/03/07 05:11:30;;;;;;;5.13;3.08;;;2.20;99.90;;;;;;5097348;28;20428;-72
2024/03/07 05:13:55;;;;;;;3.35;2.58;;;2.20;99.90;;;;;;5083639;28;21023;-72
2024/03/07 05:16:21;;;;;;;4.20;2.42;;;2.20;99.90;;;;;;5087713;28;20032;-72
2024/03/07 05:18:47;;;;;;;2.75;2.17;;;2.20;99.90;;;;;;5068038;28;20040;-72
2024/03/07 05:23:57;;;;;;;5.23;3.63;;;2.20;99.90;;;;;;5084778;28;20123;-71
2024/03/07 05:26:23;;;;;;;5.88;4.30;;;2.20;99.90;;;;;;5087115;28;20406;-72
2024/03/07 05:28:49;;;;;;;7.10;3.15;;;2.10;99.90;;;;;;5087027;28;20150;-72
2024/03/07 05:31:17;;;;;;;3.22;2.17;;;2.10;99.90;;;;;;5086921;28;20494;-72
2024/03/07 05:33:44;;;;;;;5.65;3.28;;;2.00;99.90;;;;;;5086714;28;20061;-72
2024/03/07 05:36:16;;;;;;;5.07;3.05;;;2.10;99.90;;;;;;5085173;28;20039;-72
2024/03/07 05:38:45;;;;;;;4.10;2.20;;;2.00;99.90;;;;;;5082498;28;20040;-72
2024/03/07 05:41:14;;;;;;;4.35;2.85;;;2.00;99.90;;;;;;5084504;28;20476;-72
2024/03/07 05:43:40;;;;;;;7.07;3.80;;;2.00;99.90;;;;;;5080360;28;20507;-72
2024/03/07 05:46:06;;;;;;;6.13;3.03;;;1.90;99.90;;;;;;5087483;28;20067;-72
2024/03/07 05:48:35;;;;;;;4.07;2.72;;;1.90;99.90;;;;;;5065946;28;20036;-72
2024/03/07 05:51:01;;;;;;;5.15;3.08;;;2.00;99.90;;;;;;5086384;28;20101;-72
2024/03/07 05:53:27;;;;;;;3.80;2.40;;;1.90;99.90;;;;;;5086580;28;20032;-72
2024/03/07 05:55:53;;;;;;;6.47;2.78;;;1.90;99.90;;;;;;5083404;28;20049;-72
2024/03/07 05:58:19;;;;;;;5.10;3.30;;;1.90;99.90;;;;;;5103534;28;20041;-72
2024/03/07 06:00:52;;;;;;;5.57;2.95;;;1.90;99.90;;;;;;5085429;28;20059;-73
2024/03/07 06:03:21;;;;;;;6.70;3.58;;;1.80;99.90;;;;;;5091230;28;20040;-72
2024/03/07 06:05:50;;;;;;;3.00;2.30;;;1.80;99.90;;;;;;5086625;28;20043;-72
2024/03/07 06:08:18;;;;;;;9.77;3.80;;;1.80;99.90;;;;;;5087263;28;20047;-74
2024/03/07 06:10:47;;;;;;;4.78;2.90;;;1.80;99.90;;;;;;5089405;28;20507;-73
2024/03/07 06:13:15;;;;;;;5.82;2.40;;;1.70;99.90;;;;;;5088314;28;20089;-73
2024/03/07 06:15:44;;;;;;;5.55;4.53;;;1.80;99.90;;;;;;5088658;28;20055;-73
2024/03/07 06:18:19;;;;;;;6.38;3.70;;;1.80;99.90;;;;;;5090838;28;20118;-73
2024/03/07 06:20:45;;;;;;;4.95;2.33;;;1.70;99.90;;;;;;5085113;28;20102;-74
2024/03/07 06:23:16;;;;;;;8.65;2.92;;;1.70;99.90;;;;;;5074293;28;20476;-70
2024/03/07 06:25:50;;;;;;;3.55;3.08;;;1.70;99.90;;;;;;5088488;28;20044;-74
2024/03/07 06:28:17;;;;;;;4.78;2.45;;;1.70;99.90;;;;;;5089277;28;20102;-74
2024/03/07 06:30:46;;;;;;;5.72;3.72;;;1.70;99.90;;;;;;5088875;28;20067;-73
2024/03/07 06:33:13;;;;;;;6.97;3.05;;;1.80;99.90;;;;;;5077767;28;20047;-73
2024/03/07 06:35:41;;;;;;;4.95;3.90;;;1.70;99.90;;;;;;5101349;28;20047;-74
2024/03/07 06:38:08;;;;;;;10.68;3.55;;;1.70;99.90;;;;;;5089800;28;20067;-74
2024/03/07 06:40:34;;;;;;;8.45;5.05;;;1.70;99.90;;;;;;5085669;28;20107;-73
2024/03/07 06:43:00;;;;;;;5.55;4.45;;;1.70;99.90;;;;;;5105900;28;20056;-74
2024/03/07 06:45:26;;;;;;;3.63;2.70;;;1.80;99.90;;;;;;5085236;28;20039;-73
2024/03/07 06:47:55;;;;;;;6.50;4.03;;;1.70;99.90;;;;;;5088001;28;20163;-70
2024/03/07 06:50:21;;;;;;;9.57;4.75;;;1.80;99.90;;;;;;5084356;28;20028;-72
2024/03/07 06:52:50;;;;;;;3.13;2.63;;;1.80;99.90;;;;;;5084151;28;20054;-72
2024/03/07 06:55:17;;;;;;;6.70;3.65;;;1.80;99.90;;;;;;5088390;28;20058;-72
2024/03/07 06:57:43;;;;;;;4.90;3.70;;;1.90;99.90;;;;;;5087012;28;20118;-72
2024/03/07 07:00:11;;;;;;;6.85;3.53;;;1.90;99.90;;;;;;5072513;28;20052;-72
2024/03/07 07:02:43;;;;;;;5.78;3.65;;;2.00;99.90;;;;;;5070172;28;20139;-73
2024/03/07 07:05:12;;;;;;;7.22;4.57;;;2.00;99.90;;;;;;5070519;28;20097;-73
2024/03/07 07:07:50;;;;;;;9.48;4.18;;;2.10;99.90;;;;;;5070314;28;20036;-72
2024/03/07 07:10:18;;;;;;;4.22;2.65;;;2.10;99.90;;;;;;5086623;28;20036;-73
2024/03/07 07:12:48;;;;;;;8.48;4.72;;;2.20;99.90;;;;;;5084664;28;20047;-73
2024/03/07 07:15:15;;;;;;;3.83;3.20;;;2.20;99.90;;;;;;5087356;28;20065;-72
2024/03/07 07:17:44;;;;;;;7.22;5.25;;;2.30;99.90;;;;;;5087530;28;20050;-73
2024/03/07 07:20:13;;;;;;;5.95;3.55;;;2.40;99.90;;;;;;5082722;28;20044;-73
2024/03/07 07:22:39;;;;;;;5.38;3.95;;;2.40;99.90;;;;;;5081912;28;20106;-72
2024/03/07 07:25:12;;;;;;;7.28;4.38;;;2.40;99.90;;;;;;5087538;28;20040;-72
2024/03/07 07:27:45;;;;;;;9.77;4.40;;;2.50;99.90;;;;;;5090053;28;20036;-72
2024/03/07 07:30:13;;;;;;;6.05;3.63;;;2.60;99.90;;;;;;5074185;28;20067;-72
2024/03/07 07:32:40;;;;;;;6.55;3.13;;;2.60;99.90;;;;;;5089689;28;20044;-72
2024/03/07 07:35:11;;;;;;;6.88;3.58;;;2.70;99.90;;;;;;5067313;28;20071;-73
2024/03/07 07:37:45;;;;;;;11.52;5.82;;;2.80;99.90;;;;;;5087906;28;20564;-73
2024/03/07 07:40:14;;;;;;;7.40;4.40;;;2.90;99.90;;;;;;5064032;28;20074;-72
2024/03/07 07:42:41;;;;;;;6.88;4.07;;;3.00;99.90;;;;;;5083836;28;20044;-72
2024/03/07 07:45:11;;;;;;;7.40;4.97;;;3.10;99.90;;;;;;5073273;28;20044;-83
2024/03/07 07:47:40;;;;;;;6.93;4.65;;;3.20;99.90;;;;;;5070722;28;20147;-72
2024/03/07 07:50:14;;;;;;;7.65;3.67;;;3.30;99.90;;;;;;5087414;28;20042;-73
2024/03/07 07:53:10;;;;;;;8.43;5.05;;;3.40;99.90;;;;;;5085198;28;20067;-72
2024/03/07 07:55:41;;;;;;;6.72;3.97;;;3.60;99.90;;;;;;5074564;28;20052;-72
2024/03/07 07:58:13;;;;;;;7.32;4.57;;;3.70;99.90;;;;;;5089650;28;20105;-72
2024/03/07 08:00:43;;;;;;;7.15;4.50;;;3.80;99.90;;;;;;5098329;28;20400;-72
2024/03/07 08:03:10;;;;;;;7.28;4.68;;;4.00;99.90;;;;;;5087561;28;20036;-73
2024/03/07 08:05:37;;;;;;;9.93;6.78;;;4.40;99.90;;;;;;5088059;28;20044;-72
2024/03/07 08:08:06;;;;;;;8.65;4.78;;;4.90;99.90;;;;;;5084821;28;20036;-72
2024/03/07 08:10:33;;;;;;;12.70;6.32;;;5.40;99.90;;;;;;5079117;28;20036;-72
2024/03/07 08:12:59;;;;;;;7.80;4.65;;;5.70;99.90;;;;;;5072270;28;20097;-72
2024/03/07 08:15:27;;;;;;;8.60;5.20;;;5.70;99.90;;;;;;5071145;28;20127;-72
2024/03/07 08:17:55;;;;;;;9.63;5.75;;;5.70;99.90;;;;;;5089888;28;20044;-73
2024/03/07 08:20:22;;;;;;;12.52;6.20;;;5.50;99.90;;;;;;5083187;28;20495;-72
2024/03/07 08:22:52;;;;;;;8.50;5.43;;;5.00;99.90;;;;;;5085322;28;20369;-72
2024/03/07 08:25:19;;;;;;;7.15;4.70;;;4.60;99.90;;;;;;5085062;28;20047;-72
2024/03/07 08:27:47;;;;;;;11.95;6.40;;;4.20;99.90;;;;;;5089332;28;20495;-72
2024/03/07 08:30:14;;;;;;;9.98;5.57;;;3.90;99.90;;;;;;5085490;28;20031;-72
2024/03/07 08:32:53;;;;;;;9.98;4.60;;;3.70;99.90;;;;;;5088207;28;20123;-72
2024/03/07 08:35:20;;;;;;;10.00;6.10;;;3.70;99.90;;;;;;5086517;28;20134;-72
2024/03/07 08:37:53;;;;;;;10.70;6.55;;;3.60;99.90;;;;;;5087275;28;20048;-72
2024/03/07 08:40:20;;;;;;;9.38;4.90;;;3.50;99.90;;;;;;5087311;28;20199;-72
2024/03/07 08:42:56;;;;;;;12.20;5.47;;;3.40;99.90;;;;;;5070712;28;20040;-72
2024/03/07 08:45:22;;;;;;;11.20;6.40;;;3.30;99.90;;;;;;5086970;28;20032;-72
2024/03/07 08:47:57;;;;;;;13.57;6.45;;;3.20;99.90;;;;;;5089524;28;20528;-72
2024/03/07 08:50:23;;;;;;;10.32;5.95;;;3.00;99.90;;;;;;5085804;28;20082;-73
2024/03/07 08:52:50;;;;;;;10.23;5.35;;;2.90;99.90;;;;;;5087044;28;20043;-71
2024/03/07 08:55:19;;;;;;;10.35;5.30;;;2.80;99.90;;;;;;5086541;28;20478;-71
2024/03/07 08:57:46;;;;;;;6.72;5.22;;;2.70;99.90;;;;;;5086383;28;20050;-72
2024/03/07 09:00:23;;;;;;;9.30;5.53;;;2.70;99.90;;;;;;5083250;28;20541;-71
2024/03/07 09:02:57;;;;;;;14.35;7.20;;;2.70;99.90;;;;;;5069083;28;20093;-72
2024/03/07 09:05:24;;;;;;;10.38;5.63;;;2.70;99.90;;;;;;5087674;28;20043;-71
2024/03/07 09:07:50;;;;;;;9.23;5.57;;;2.70;99.90;;;;;;5083895;28;20044;-71
2024/03/07 09:10:20;;;;;;;7.90;5.15;;;2.70;99.90;;;;;;5086219;28;20036;-72
2024/03/07 09:12:49;;;;;;;12.70;7.43;;;2.60;99.90;;;;;;5100958;28;20040;-72
2024/03/07 09:15:17;;;;;;;10.35;6.57;;;2.60;99.90;;;;;;5083406;28;20074;-72
2024/03/07 09:17:44;;;;;;;8.88;5.80;;;2.60;99.90;;;;;;5088125;28;20040;-71
2024/03/07 09:20:14;;;;;;;10.68;5.97;;;2.50;99.90;;;;;;5085167;28;20062;-71
2024/03/07 09:22:44;;;;;;;9.77;5.72;;;2.60;99.90;;;;;;5071655;28;20051;-72
2024/03/07 09:25:12;;;;;;;22.10;6.63;;;2.60;99.90;;;;;;5087550;28;20075;-71
2024/03/07 09:27:40;;;;;;;12.13;6.70;;;2.60;99.90;;;;;;5100794;28;20040;-72
2024/03/07 09:30:11;;;;;;;13.35;5.85;;;2.60;99.90;;;;;;5088185;28;20043;-72
2024/03/07 09:32:39;;;;;;;11.70;6.40;;;2.70;99.90;;;;;;5085344;28;20044;-73
2024/03/07 09:35:07;;;;;;;9.13;5.18;;;2.60;99.90;;;;;;5088438;28;20074;-71
2024/03/07 09:37:33;;;;;;;10.20;5.97;;;2.60;99.90;;;;;;5071246;28;20042;-71
2024/03/07 09:39:58;;;;;;;10.73;5.70;;;2.60;99.90;;;;;;5081223;28;20454;-72
2024/03/07 09:42:27;;;;;;;9.68;5.30;;;2.60;99.90;;;;;;5087322;28;20538;-72
2024/03/07 09:44:56;;;;;;;7.30;4.70;;;2.60;99.90;;;;;;5087810;28;20115;-71
2024/03/07 09:47:22;;;;;;;11.35;6.07;;;2.60;99.90;;;;;;5104458;28;20032;-71
2024/03/07 09:49:48;;;;;;;6.20;4.65;;;2.60;99.90;;;;;;5085934;28;20032;-72
2024/03/07 09:52:16;;;;;;;12.02;5.70;;;2.70;99.90;;;;;;5087512;28;20040;-72
2024/03/07 09:54:42;;;;;;;10.18;6.03;;;2.70;99.90;;;;;;5085346;28;20048;-71
2024/03/07 09:57:08;;;;;;;6.57;4.55;;;2.70;99.90;;;;;;5083762;28;20048;-71
2024/03/07 09:59:40;;;;;;;9.45;5.03;;;2.80;99.90;;;;;;5087777;28;20394;-71
2024/03/07 10:02:09;;;;;;;10.13;4.00;;;2.90;99.90;;;;;;5085304;28;20037;-72
2024/03/07 10:04:48;;;;;;;6.05;3.85;;;2.90;99.90;;;;;;5086838;28;20032;-71
2024/03/07 10:07:16;;;;;;;8.85;3.63;;;3.00;99.90;;;;;;5070701;28;20039;-72
2024/03/07 10:09:42;;;;;;;6.53;3.65;;;3.00;99.90;;;;;;5064024;28;20048;-71
2024/03/07 10:12:15;;;;;;;5.57;4.50;;;3.10;99.90;;;;;;5087021;28;20047;-73
2024/03/07 10:14:51;;;;;;;5.53;3.08;;;3.20;99.90;;;;;;5085911;28;20051;-71
2024/03/07 10:17:19;;;;;;;7.10;3.50;;;3.20;99.90;;;;;;5084510;28;20051;-72
2024/03/07 10:19:52;;;;;;;6.72;3.92;;;3.30;99.90;;;;;;5084685;28;20052;-72
2024/03/07 10:22:20;;;;;;;6.47;3.65;;;3.40;99.90;;;;;;5085052;28;20423;-72
2024/03/07 10:24:53;;;;;;;7.55;4.88;;;3.50;99.90;;;;;;5068220;28;20055;-72
2024/03/07 10:27:22;;;;;;;7.43;4.28;;;3.60;99.90;;;;;;5085397;28;20037;-72
2024/03/07 10:29:51;;;;;;;9.80;4.68;;;3.70;99.90;;;;;;5089238;28;20043;-73
2024/03/07 10:32:21;;;;;;;13.55;4.60;;;3.80;99.90;;;;;;5070048;28;20068;-72
2024/03/07 10:34:51;;;;;;;11.55;5.88;;;3.90;99.90;;;;;;5066104;28;20045;-74
2024/03/07 10:37:17;;;;;;;14.27;6.75;;;4.00;99.90;;;;;;5102230;28;20046;-71
2024/03/07 10:39:49;;;;;;;7.32;4.22;;;4.10;99.90;;;;;;5081028;28;20087;-71
2024/03/07 10:42:16;;;;;;;9.07;5.03;;;4.20;99.90;;;;;;5086344;28;20044;-72
2024/03/07 10:44:47;;;;;;;10.07;5.53;;;4.20;99.90;;;;;;5070801;28;20036;-72
2024/03/07 10:47:20;;;;;;;6.47;4.80;;;4.30;99.90;;;;;;5085673;28;20132;-73
2024/03/07 10:50:15;;;;;;;9.10;4.60;;;4.50;99.90;;;;;;5084345;28;20503;-72
2024/03/07 10:52:50;;;;;;;10.32;6.00;;;4.80;99.90;;;;;;5070216;28;20040;-73
2024/03/07 10:55:32;;;;;;;6.95;4.13;;;5.00;99.90;;;;;;5079687;28;20118;-72
2024/03/07 10:58:18;;;;;;;10.45;4.93;;;5.10;99.90;;;;;;5091247;28;20340;-73
2024/03/07 11:00:48;;;;;;;7.70;3.88;;;5.10;99.90;;;;;;5090517;28;20416;-73
2024/03/07 11:03:14;;;;;;;5.70;4.72;;;5.30;99.90;;;;;;5073852;28;20334;-73
2024/03/07 11:05:43;;;;;;;10.40;4.68;;;5.50;99.90;;;;;;5085857;28;20059;-73
2024/03/07 11:08:13;;;;;;;12.50;4.85;;;5.70;99.90;;;;;;5090032;28;20304;-73
2024/03/07 11:10:40;;;;;;;10.60;4.60;;;5.70;99.90;;;;;;5069953;28;20040;-73
2024/03/07 11:13:12;;;;;;;8.93;3.97;;;5.60;99.90;;;;;;5105770;28;20491;-73
2024/03/07 11:15:43;;;;;;;6.47;3.50;;;5.70;99.90;;;;;;5088543;28;20040;-73
2024/03/07 11:18:12;;;;;;;7.50;4.78;;;5.70;99.90;;;;;;5074465;28;20403;-73
2024/03/07 11:20:39;;;;;;;11.45;4.03;;;5.70;99.90;;;;;;5087354;28;20140;-72
2024/03/07 11:23:32;;;;;;;8.32;4.50;;;5.70;99.90;;;;;;5087074;28;20047;-72
2024/03/07 11:26:08;;;;;;;12.70;6.10;;;5.70;99.90;;;;;;5084839;28;20127;-73
2024/03/07 11:28:38;;;;;;;8.40;5.28;;;5.80;99.90;;;;;;5089798;28;20047;-73
2024/03/07 11:31:13;;;;;;;8.07;4.32;;;5.80;99.90;;;;;;5087340;28;20089;-73
2024/03/07 11:33:40;;;;;;;5.95;3.85;;;5.70;99.90;;;;;;5081918;28;20063;-73
2024/03/07 11:36:12;;;;;;;12.90;4.85;;;5.70;99.90;;;;;;5070219;28;20545;-74
2024/03/07 11:38:45;;;;;;;8.57;4.90;;;5.80;99.90;;;;;;5102627;28;20392;-73
2024/03/07 11:41:13;;;;;;;12.10;5.72;;;5.90;99.90;;;;;;5078747;28;20040;-72
2024/03/07 11:43:42;;;;;;;11.82;5.78;;;5.90;99.90;;;;;;5084213;28;20123;-74
2024/03/07 11:46:11;;;;;;;9.57;5.25;;;6.00;99.90;;;;;;5086396;28;20096;-73
2024/03/07 11:48:41;;;;;;;8.25;3.97;;;6.00;99.90;;;;;;5070896;28;20105;-73
2024/03/07 11:51:10;;;;;;;7.57;3.95;;;6.00;99.90;;;;;;5064924;28;20033;-73
2024/03/07 11:53:39;;;;;;;9.70;5.57;;;6.00;99.90;;;;;;5087731;28;20097;-72
2024/03/07 11:56:16;;;;;;;7.68;3.63;;;6.10;99.90;;;;;;5099780;28;20052;-73
2024/03/07 11:58:44;;;;;;;9.23;5.30;;;6.10;99.90;;;;;;5072109;28;20097;-72
2024/03/07 12:01:13;;;;;;;8.40;4.50;;;6.00;99.90;;;;;;5085773;28;20519;-72
2024/03/07 12:03:39;;;;;;;13.60;5.07;;;6.00;99.90;;;;;;5087471;28;20044;-73
2024/03/07 12:06:05;;;;;;;16.25;5.57;;;6.00;99.90;;;;;;5086164;28;20459;-72
2024/03/07 12:08:31;;;;;;;8.50;4.05;;;5.90;99.90;;;;;;5084726;28;20104;-73
2024/03/07 12:10:57;;;;;;;9.18;4.22;;;5.90;99.90;;;;;;5084915;28;20560;-72
2024/03/07 12:13:24;;;;;;;10.05;5.55;;;5.90;99.90;;;;;;5088575;28;20044;-73
2024/03/07 12:15:55;;;;;;;9.48;5.15;;;5.90;99.90;;;;;;5085205;28;20152;-73
2024/03/07 12:18:23;;;;;;;9.15;4.63;;;6.00;99.90;;;;;;5086881;28;20332;-73
2024/03/07 12:20:53;;;;;;;10.20;4.65;;;6.00;99.90;;;;;;5088402;28;20067;-73
2024/03/07 12:23:23;;;;;;;8.27;4.63;;;6.10;99.90;;;;;;5100855;28;20496;-73
2024/03/07 12:26:01;;;;;;;8.35;3.95;;;6.20;99.90;;;;;;5085143;28;20380;-73
2024/03/07 12:28:26;;;;;;;8.82;4.32;;;6.30;99.90;;;;;;5081271;28;20040;-74
2024/03/07 12:30:54;;;;;;;7.70;4.60;;;6.40;99.90;;;;;;5090161;28;20505;-73
2024/03/07 12:33:22;;;;;;;10.75;4.18;;;6.40;99.90;;;;;;5090850;28;20047;-73
2024/03/07 12:35:51;;;;;;;7.55;4.28;;;6.30;99.90;;;;;;5072100;28;20043;-73
2024/03/07 12:38:23;;;;;;;8.32;4.63;;;6.40;99.90;;;;;;5086815;28;20437;-73
2024/03/07 12:41:13;;;;;;;8.13;3.35;;;6.40;99.90;;;;;;5088066;28;20083;-73
2024/03/07 12:43:42;;;;;;;7.03;4.18;;;6.40;99.90;;;;;;5086293;28;20119;-74
2024/03/07 12:46:11;;;;;;;8.23;3.97;;;6.40;99.90;;;;;;5103754;28;20031;-73
2024/03/07 12:48:38;;;;;;;8.00;3.15;;;6.40;99.90;;;;;;5069063;28;20047;-73
2024/03/07 12:51:05;;;;;;;5.95;2.55;;;6.40;99.90;;;;;;5071528;28;20111;-71
2024/03/07 12:53:31;;;;;;;7.45;4.97;;;6.40;99.90;;;;;;5083254;28;20042;-73
2024/03/07 12:55:57;;;;;;;9.10;4.95;;;6.40;99.90;;;;;;5086424;28;20455;-76
2024/03/07 12:58:25;;;;;;;10.38;4.30;;;6.40;99.90;;;;;;5086877;28;20039;-73
2024/03/07 13:00:52;;;;;;;8.25;4.07;;;6.40;99.90;;;;;;5088583;28;20044;-73
2024/03/07 13:03:18;;;;;;;9.57;4.68;;;6.40;99.90;;;;;;5083960;28;20594;-73